sensor_id;sensor_type;location;lat;lon;timestamp;P1;durP1;ratioP1;P2;durP2;ratioP2
40314;SDS011;26021;45.640;11.302;2023-02-11T00:01:23;38.05;;;21.20;;
40314;SDS011;26021;45.640;11.302;2023-02-11T00:03:51;34.60;;;19.77;;
40314;SDS011;26021;45.640;11.302;2023-02-11T00:06:17;30.85;;;18.30;;
40314;SDS011;26021;45.640;11.302;2023-02-11T00:08:42;37.13;;;20.65;;
40314;SDS011;26021;45.640;11.302;2023-02-11T00:11:11;34.85;;;20.45;;
40314;SDS011;26021;45.640;11.302;2023-02-11T00:13:38;33.92;;;20.55;;
40314;SDS011;26021;45.640;11.302;2023-02-11T00:16:07;34.17;;;20.35;;
40314;SDS011;26021;45.640;11.302;2023-02-11T00:18:34;40.42;;;20.90;;
40314;SDS011;26021;45.640;11.302;2023-02-11T00:21:04;43.10;;;21.38;;
40314;SDS011;26021;45.640;11.302;2023-02-11T00:23:34;35.83;;;20.80;;
40314;SDS011;26021;45.640;11.302;2023-02-11T00:26:00;40.55;;;21.48;;
40314;SDS011;26021;45.640;11.302;2023-02-11T00:28:26;38.22;;;20.27;;
40314;SDS011;26021;45.640;11.302;2023-02-11T00:30:55;37.35;;;19.73;;
40314;SDS011;26021;45.640;11.302;2023-02-11T00:33:21;34.67;;;18.15;;
40314;SDS011;26021;45.640;11.302;2023-02-11T00:35:46;35.47;;;18.77;;
40314;SDS011;26021;45.640;11.302;2023-02-11T00:38:12;30.58;;;17.55;;
40314;SDS011;26021;45.640;11.302;2023-02-11T00:40:37;32.75;;;18.17;;
40314;SDS011;26021;45.640;11.302;2023-02-11T00:43:03;30.58;;;17.05;;
40314;SDS011;26021;45.640;11.302;2023-02-11T00:45:28;34.60;;;18.15;;
40314;SDS011;26021;45.640;11.302;2023-02-11T00:47:54;28.13;;;16.10;;
40314;SDS011;26021;45.640;11.302;2023-02-11T00:50:20;76.95;;;39.33;;
40314;SDS011;26021;45.640;11.302;2023-02-11T00:52:46;29.10;;;15.73;;
40314;SDS011;26021;45.640;11.302;2023-02-11T00:55:12;28.27;;;15.40;;
40314;SDS011;26021;45.640;11.302;2023-02-11T00:57:38;24.45;;;15.40;;
40314;SDS011;26021;45.640;11.302;2023-02-11T01:00:04;50.05;;;27.45;;
40314;SDS011;26021;45.640;11.302;2023-02-11T01:02:31;32.00;;;17.98;;
40314;SDS011;26021;45.640;11.302;2023-02-11T01:04:57;23.45;;;14.27;;
40314;SDS011;26021;45.640;11.302;2023-02-11T01:07:24;31.38;;;16.75;;
40314;SDS011;26021;45.640;11.302;2023-02-11T01:09:50;30.60;;;16.38;;
40314;SDS011;26021;45.640;11.302;2023-02-11T01:12:15;28.38;;;14.90;;
40314;SDS011;26021;45.640;11.302;2023-02-11T01:14:41;25.45;;;14.10;;
40314;SDS011;26021;45.640;11.302;2023-02-11T01:17:07;29.48;;;17.83;;
40314;SDS011;26021;45.640;11.302;2023-02-11T01:19:33;21.40;;;12.77;;
40314;SDS011;26021;45.640;11.302;2023-02-11T01:21:58;25.98;;;14.93;;
40314;SDS011;26021;45.640;11.302;2023-02-11T01:24:24;23.38;;;13.43;;
40314;SDS011;26021;45.640;11.302;2023-02-11T01:26:49;20.05;;;13.50;;
40314;SDS011;26021;45.640;11.302;2023-02-11T01:29:15;27.48;;;13.73;;
40314;SDS011;26021;45.640;11.302;2023-02-11T01:31:40;20.38;;;12.25;;
40314;SDS011;26021;45.640;11.302;2023-02-11T01:34:06;21.13;;;13.30;;
40314;SDS011;26021;45.640;11.302;2023-02-11T01:36:31;22.65;;;12.15;;
40314;SDS011;26021;45.640;11.302;2023-02-11T01:38:57;21.77;;;12.35;;
40314;SDS011;26021;45.640;11.302;2023-02-11T01:41:22;22.83;;;12.65;;
40314;SDS011;26021;45.640;11.302;2023-02-11T01:43:48;19.88;;;12.65;;
40314;SDS011;26021;45.640;11.302;2023-02-11T01:48:54;18.67;;;11.88;;
40314;SDS011;26021;45.640;11.302;2023-02-11T01:51:39;19.15;;;12.45;;
40314;SDS011;26021;45.640;11.302;2023-02-11T01:54:09;22.73;;;12.90;;
40314;SDS011;26021;45.640;11.302;2023-02-11T01:56:57;21.52;;;12.75;;
40314;SDS011;26021;45.640;11.302;2023-02-11T01:59:45;21.98;;;13.77;;
40314;SDS011;26021;45.640;11.302;2023-02-11T02:02:16;19.30;;;11.57;;
40314;SDS011;26021;45.640;11.302;2023-02-11T02:04:51;21.70;;;12.30;;
40314;SDS011;26021;45.640;11.302;2023-02-11T02:07:33;21.48;;;11.93;;
40314;SDS011;26021;45.640;11.302;2023-02-11T02:10:07;18.80;;;10.85;;
40314;SDS011;26021;45.640;11.302;2023-02-11T02:12:38;20.60;;;11.85;;
40314;SDS011;26021;45.640;11.302;2023-02-11T02:17:53;23.33;;;12.07;;
40314;SDS011;26021;45.640;11.302;2023-02-11T02:34:11;22.33;;;11.55;;
40314;SDS011;26021;45.640;11.302;2023-02-11T02:36:48;23.48;;;12.27;;
40314;SDS011;26021;45.640;11.302;2023-02-11T02:39:24;19.05;;;10.20;;
40314;SDS011;26021;45.640;11.302;2023-02-11T02:41:53;19.83;;;11.20;;
40314;SDS011;26021;45.640;11.302;2023-02-11T02:44:20;14.75;;;9.30;;
40314;SDS011;26021;45.640;11.302;2023-02-11T02:46:46;19.55;;;10.55;;
40314;SDS011;26021;45.640;11.302;2023-02-11T02:49:12;20.88;;;10.77;;
40314;SDS011;26021;45.640;11.302;2023-02-11T03:02:57;16.70;;;10.15;;
40314;SDS011;26021;45.640;11.302;2023-02-11T03:08:40;18.08;;;9.60;;
40314;SDS011;26021;45.640;11.302;2023-02-11T03:11:08;15.50;;;9.80;;
40314;SDS011;26021;45.640;11.302;2023-02-11T03:13:35;15.05;;;9.27;;
40314;SDS011;26021;45.640;11.302;2023-02-11T03:16:23;15.82;;;9.40;;
40314;SDS011;26021;45.640;11.302;2023-02-11T03:18:55;15.10;;;8.95;;
40314;SDS011;26021;45.640;11.302;2023-02-11T03:21:27;16.85;;;9.23;;
40314;SDS011;26021;45.640;11.302;2023-02-11T03:23:56;14.65;;;9.48;;
40314;SDS011;26021;45.640;11.302;2023-02-11T03:26:27;15.40;;;10.05;;
40314;SDS011;26021;45.640;11.302;2023-02-11T03:31:40;18.33;;;9.60;;
40314;SDS011;26021;45.640;11.302;2023-02-11T03:37:14;18.70;;;10.48;;
40314;SDS011;26021;45.640;11.302;2023-02-11T03:39:44;15.82;;;9.35;;
40314;SDS011;26021;45.640;11.302;2023-02-11T03:42:14;15.55;;;9.43;;
40314;SDS011;26021;45.640;11.302;2023-02-11T03:45:02;15.30;;;9.90;;
40314;SDS011;26021;45.640;11.302;2023-02-11T03:47:32;15.68;;;9.98;;
40314;SDS011;26021;45.640;11.302;2023-02-11T03:50:02;16.45;;;9.07;;
40314;SDS011;26021;45.640;11.302;2023-02-11T03:52:30;14.13;;;9.25;;
40314;SDS011;26021;45.640;11.302;2023-02-11T03:54:57;19.33;;;9.75;;
40314;SDS011;26021;45.640;11.302;2023-02-11T03:57:27;16.85;;;10.00;;
40314;SDS011;26021;45.640;11.302;2023-02-11T04:02:21;16.13;;;9.45;;
40314;SDS011;26021;45.640;11.302;2023-02-11T04:04:49;15.68;;;9.27;;
40314;SDS011;26021;45.640;11.302;2023-02-11T04:07:14;17.20;;;9.93;;
40314;SDS011;26021;45.640;11.302;2023-02-11T04:09:40;15.90;;;8.82;;
40314;SDS011;26021;45.640;11.302;2023-02-11T04:12:06;17.38;;;9.85;;
40314;SDS011;26021;45.640;11.302;2023-02-11T04:14:32;15.35;;;9.55;;
40314;SDS011;26021;45.640;11.302;2023-02-11T04:16:57;17.45;;;10.15;;
40314;SDS011;26021;45.640;11.302;2023-02-11T04:19:22;20.83;;;10.68;;
40314;SDS011;26021;45.640;11.302;2023-02-11T04:21:48;18.45;;;10.45;;
40314;SDS011;26021;45.640;11.302;2023-02-11T04:24:13;17.83;;;10.88;;
40314;SDS011;26021;45.640;11.302;2023-02-11T04:26:39;16.10;;;8.93;;
40314;SDS011;26021;45.640;11.302;2023-02-11T04:29:04;24.80;;;11.82;;
40314;SDS011;26021;45.640;11.302;2023-02-11T04:31:30;27.15;;;11.85;;
40314;SDS011;26021;45.640;11.302;2023-02-11T04:33:55;20.73;;;10.43;;
40314;SDS011;26021;45.640;11.302;2023-02-11T04:36:21;26.50;;;13.13;;
40314;SDS011;26021;45.640;11.302;2023-02-11T04:38:46;24.38;;;11.40;;
40314;SDS011;26021;45.640;11.302;2023-02-11T04:41:12;24.60;;;11.02;;
40314;SDS011;26021;45.640;11.302;2023-02-11T04:43:37;17.35;;;9.88;;
40314;SDS011;26021;45.640;11.302;2023-02-11T04:46:02;19.80;;;10.25;;
40314;SDS011;26021;45.640;11.302;2023-02-11T04:48:28;20.15;;;10.30;;
40314;SDS011;26021;45.640;11.302;2023-02-11T04:50:53;19.08;;;10.25;;
40314;SDS011;26021;45.640;11.302;2023-02-11T04:53:19;16.38;;;9.20;;
40314;SDS011;26021;45.640;11.302;2023-02-11T04:55:47;18.35;;;8.95;;
40314;SDS011;26021;45.640;11.302;2023-02-11T04:58:13;13.45;;;8.68;;
40314;SDS011;26021;45.640;11.302;2023-02-11T05:00:39;12.63;;;8.38;;
40314;SDS011;26021;45.640;11.302;2023-02-11T05:03:04;16.10;;;9.10;;
40314;SDS011;26021;45.640;11.302;2023-02-11T05:05:30;14.45;;;9.52;;
40314;SDS011;26021;45.640;11.302;2023-02-11T05:07:55;26.15;;;18.75;;
40314;SDS011;26021;45.640;11.302;2023-02-11T05:10:21;15.27;;;10.20;;
40314;SDS011;26021;45.640;11.302;2023-02-11T05:12:47;15.05;;;10.32;;
40314;SDS011;26021;45.640;11.302;2023-02-11T05:15:13;16.35;;;10.13;;
40314;SDS011;26021;45.640;11.302;2023-02-11T05:17:39;15.27;;;11.07;;
40314;SDS011;26021;45.640;11.302;2023-02-11T05:20:05;14.88;;;9.68;;
40314;SDS011;26021;45.640;11.302;2023-02-11T05:22:30;13.73;;;8.95;;
40314;SDS011;26021;45.640;11.302;2023-02-11T05:24:56;15.25;;;9.20;;
40314;SDS011;26021;45.640;11.302;2023-02-11T05:27:21;14.82;;;9.35;;
40314;SDS011;26021;45.640;11.302;2023-02-11T05:29:47;17.27;;;8.90;;
40314;SDS011;26021;45.640;11.302;2023-02-11T05:32:12;13.38;;;9.40;;
40314;SDS011;26021;45.640;11.302;2023-02-11T05:34:38;13.70;;;8.35;;
40314;SDS011;26021;45.640;11.302;2023-02-11T05:37:03;13.70;;;8.77;;
40314;SDS011;26021;45.640;11.302;2023-02-11T05:39:30;13.93;;;8.77;;
40314;SDS011;26021;45.640;11.302;2023-02-11T05:41:55;15.52;;;9.07;;
40314;SDS011;26021;45.640;11.302;2023-02-11T05:44:21;17.15;;;10.13;;
40314;SDS011;26021;45.640;11.302;2023-02-11T05:46:46;16.98;;;9.85;;
40314;SDS011;26021;45.640;11.302;2023-02-11T05:49:13;13.73;;;9.38;;
40314;SDS011;26021;45.640;11.302;2023-02-11T05:51:38;16.13;;;9.05;;
40314;SDS011;26021;45.640;11.302;2023-02-11T05:54:04;15.70;;;10.05;;
40314;SDS011;26021;45.640;11.302;2023-02-11T05:56:29;17.80;;;9.70;;
40314;SDS011;26021;45.640;11.302;2023-02-11T05:58:57;12.13;;;8.65;;
40314;SDS011;26021;45.640;11.302;2023-02-11T06:01:23;13.75;;;8.07;;
40314;SDS011;26021;45.640;11.302;2023-02-11T06:03:49;12.93;;;8.55;;
40314;SDS011;26021;45.640;11.302;2023-02-11T06:06:15;14.60;;;9.40;;
40314;SDS011;26021;45.640;11.302;2023-02-11T06:08:41;14.90;;;8.95;;
40314;SDS011;26021;45.640;11.302;2023-02-11T06:11:07;19.02;;;9.48;;
40314;SDS011;26021;45.640;11.302;2023-02-11T06:13:33;16.90;;;9.93;;
40314;SDS011;26021;45.640;11.302;2023-02-11T06:15:59;16.80;;;9.80;;
40314;SDS011;26021;45.640;11.302;2023-02-11T06:18:25;13.90;;;9.90;;
40314;SDS011;26021;45.640;11.302;2023-02-11T06:20:51;15.48;;;9.65;;
40314;SDS011;26021;45.640;11.302;2023-02-11T06:23:17;15.82;;;9.25;;
40314;SDS011;26021;45.640;11.302;2023-02-11T06:25:43;14.88;;;8.98;;
40314;SDS011;26021;45.640;11.302;2023-02-11T06:28:08;14.27;;;9.55;;
40314;SDS011;26021;45.640;11.302;2023-02-11T06:30:35;17.17;;;9.95;;
40314;SDS011;26021;45.640;11.302;2023-02-11T06:33:03;17.42;;;9.93;;
40314;SDS011;26021;45.640;11.302;2023-02-11T06:35:29;19.15;;;11.40;;
40314;SDS011;26021;45.640;11.302;2023-02-11T06:37:54;41.15;;;23.42;;
40314;SDS011;26021;45.640;11.302;2023-02-11T06:40:20;26.00;;;14.27;;
40314;SDS011;26021;45.640;11.302;2023-02-11T06:42:46;16.88;;;10.40;;
40314;SDS011;26021;45.640;11.302;2023-02-11T06:45:11;27.88;;;15.32;;
40314;SDS011;26021;45.640;11.302;2023-02-11T06:47:38;27.45;;;15.85;;
40314;SDS011;26021;45.640;11.302;2023-02-11T06:50:04;24.23;;;13.73;;
40314;SDS011;26021;45.640;11.302;2023-02-11T06:52:31;23.55;;;13.52;;
40314;SDS011;26021;45.640;11.302;2023-02-11T06:54:57;20.23;;;12.48;;
40314;SDS011;26021;45.640;11.302;2023-02-11T06:57:23;20.85;;;13.48;;
40314;SDS011;26021;45.640;11.302;2023-02-11T06:59:48;24.63;;;14.43;;
40314;SDS011;26021;45.640;11.302;2023-02-11T07:02:14;23.55;;;14.75;;
40314;SDS011;26021;45.640;11.302;2023-02-11T07:04:40;23.42;;;13.38;;
40314;SDS011;26021;45.640;11.302;2023-02-11T07:07:05;23.35;;;14.07;;
40314;SDS011;26021;45.640;11.302;2023-02-11T07:09:31;27.42;;;14.48;;
40314;SDS011;26021;45.640;11.302;2023-02-11T07:11:56;27.35;;;15.40;;
40314;SDS011;26021;45.640;11.302;2023-02-11T07:14:22;25.25;;;14.10;;
40314;SDS011;26021;45.640;11.302;2023-02-11T07:16:47;26.23;;;15.88;;
40314;SDS011;26021;45.640;11.302;2023-02-11T07:19:13;32.03;;;16.38;;
40314;SDS011;26021;45.640;11.302;2023-02-11T07:21:38;28.67;;;16.70;;
40314;SDS011;26021;45.640;11.302;2023-02-11T07:24:07;27.25;;;16.40;;
40314;SDS011;26021;45.640;11.302;2023-02-11T07:26:33;22.02;;;12.93;;
40314;SDS011;26021;45.640;11.302;2023-02-11T07:28:59;25.60;;;15.45;;
40314;SDS011;26021;45.640;11.302;2023-02-11T07:31:26;27.00;;;16.30;;
40314;SDS011;26021;45.640;11.302;2023-02-11T07:33:55;25.90;;;16.27;;
40314;SDS011;26021;45.640;11.302;2023-02-11T07:36:23;24.00;;;15.32;;
40314;SDS011;26021;45.640;11.302;2023-02-11T07:38:50;28.67;;;17.10;;
40314;SDS011;26021;45.640;11.302;2023-02-11T07:41:17;31.05;;;17.60;;
40314;SDS011;26021;45.640;11.302;2023-02-11T07:43:44;32.03;;;18.52;;
40314;SDS011;26021;45.640;11.302;2023-02-11T07:46:20;37.42;;;23.50;;
40314;SDS011;26021;45.640;11.302;2023-02-11T07:48:47;39.90;;;24.60;;
40314;SDS011;26021;45.640;11.302;2023-02-11T07:53:49;33.80;;;22.40;;
40314;SDS011;26021;45.640;11.302;2023-02-11T07:56:16;30.35;;;19.15;;
40314;SDS011;26021;45.640;11.302;2023-02-11T07:58:43;34.28;;;20.20;;
40314;SDS011;26021;45.640;11.302;2023-02-11T08:01:09;36.28;;;22.23;;
40314;SDS011;26021;45.640;11.302;2023-02-11T08:03:36;38.15;;;22.52;;
40314;SDS011;26021;45.640;11.302;2023-02-11T08:06:03;38.50;;;20.85;;
40314;SDS011;26021;45.640;11.302;2023-02-11T08:08:30;28.48;;;18.48;;
40314;SDS011;26021;45.640;11.302;2023-02-11T08:10:55;27.20;;;16.33;;
40314;SDS011;26021;45.640;11.302;2023-02-11T08:13:21;21.48;;;13.98;;
40314;SDS011;26021;45.640;11.302;2023-02-11T08:15:46;24.65;;;14.45;;
40314;SDS011;26021;45.640;11.302;2023-02-11T08:18:12;21.08;;;13.38;;
40314;SDS011;26021;45.640;11.302;2023-02-11T08:20:37;25.33;;;15.60;;
40314;SDS011;26021;45.640;11.302;2023-02-11T08:23:04;24.30;;;16.30;;
40314;SDS011;26021;45.640;11.302;2023-02-11T08:25:31;32.10;;;18.35;;
40314;SDS011;26021;45.640;11.302;2023-02-11T08:27:57;28.35;;;17.00;;
40314;SDS011;26021;45.640;11.302;2023-02-11T08:30:22;24.77;;;17.90;;
40314;SDS011;26021;45.640;11.302;2023-02-11T08:32:49;21.92;;;13.90;;
40314;SDS011;26021;45.640;11.302;2023-02-11T08:35:14;23.48;;;15.15;;
40314;SDS011;26021;45.640;11.302;2023-02-11T08:37:40;37.00;;;25.90;;
40314;SDS011;26021;45.640;11.302;2023-02-11T08:40:05;28.08;;;17.38;;
40314;SDS011;26021;45.640;11.302;2023-02-11T08:42:31;27.48;;;17.30;;
40314;SDS011;26021;45.640;11.302;2023-02-11T08:44:57;28.77;;;16.17;;
40314;SDS011;26021;45.640;11.302;2023-02-11T08:47:22;23.75;;;15.35;;
40314;SDS011;26021;45.640;11.302;2023-02-11T08:49:48;47.10;;;29.20;;
40314;SDS011;26021;45.640;11.302;2023-02-11T08:52:13;43.63;;;24.52;;
40314;SDS011;26021;45.640;11.302;2023-02-11T08:54:39;28.05;;;17.58;;
40314;SDS011;26021;45.640;11.302;2023-02-11T08:57:04;27.90;;;18.25;;
40314;SDS011;26021;45.640;11.302;2023-02-11T08:59:30;30.40;;;19.25;;
40314;SDS011;26021;45.640;11.302;2023-02-11T09:01:55;30.40;;;19.00;;
40314;SDS011;26021;45.640;11.302;2023-02-11T09:04:22;32.70;;;20.13;;
40314;SDS011;26021;45.640;11.302;2023-02-11T09:06:47;24.70;;;15.88;;
40314;SDS011;26021;45.640;11.302;2023-02-11T09:09:13;24.48;;;15.35;;
40314;SDS011;26021;45.640;11.302;2023-02-11T09:11:40;26.63;;;16.08;;
40314;SDS011;26021;45.640;11.302;2023-02-11T09:14:07;24.85;;;15.63;;
40314;SDS011;26021;45.640;11.302;2023-02-11T09:16:39;20.75;;;14.50;;
40314;SDS011;26021;45.640;11.302;2023-02-11T09:19:04;23.40;;;15.38;;
40314;SDS011;26021;45.640;11.302;2023-02-11T09:21:30;20.83;;;14.55;;
40314;SDS011;26021;45.640;11.302;2023-02-11T09:23:56;25.17;;;15.68;;
40314;SDS011;26021;45.640;11.302;2023-02-11T09:26:24;36.30;;;23.25;;
40314;SDS011;26021;45.640;11.302;2023-02-11T09:28:51;25.10;;;18.23;;
40314;SDS011;26021;45.640;11.302;2023-02-11T09:31:19;21.50;;;15.63;;
40314;SDS011;26021;45.640;11.302;2023-02-11T09:33:47;22.38;;;14.82;;
40314;SDS011;26021;45.640;11.302;2023-02-11T09:36:17;20.83;;;14.10;;
40314;SDS011;26021;45.640;11.302;2023-02-11T09:38:45;19.92;;;13.68;;
40314;SDS011;26021;45.640;11.302;2023-02-11T09:44:21;20.92;;;13.75;;
40314;SDS011;26021;45.640;11.302;2023-02-11T09:46:56;18.40;;;13.35;;
40314;SDS011;26021;45.640;11.302;2023-02-11T09:49:44;20.75;;;13.63;;
40314;SDS011;26021;45.640;11.302;2023-02-11T09:53:05;18.65;;;12.95;;
40314;SDS011;26021;45.640;11.302;2023-02-11T09:58:09;18.90;;;13.45;;
40314;SDS011;26021;45.640;11.302;2023-02-11T10:00:44;19.48;;;13.07;;
40314;SDS011;26021;45.640;11.302;2023-02-11T10:24:09;18.17;;;14.65;;
40314;SDS011;26021;45.640;11.302;2023-02-11T10:26:37;23.08;;;16.20;;
40314;SDS011;26021;45.640;11.302;2023-02-11T10:29:10;22.50;;;16.25;;
40314;SDS011;26021;45.640;11.302;2023-02-11T10:31:45;24.60;;;16.85;;
40314;SDS011;26021;45.640;11.302;2023-02-11T10:34:13;22.92;;;17.15;;
40314;SDS011;26021;45.640;11.302;2023-02-11T10:36:39;28.00;;;18.15;;
40314;SDS011;26021;45.640;11.302;2023-02-11T10:39:20;23.38;;;16.08;;
40314;SDS011;26021;45.640;11.302;2023-02-11T10:42:04;21.05;;;15.32;;
40314;SDS011;26021;45.640;11.302;2023-02-11T10:44:34;25.38;;;16.77;;
40314;SDS011;26021;45.640;11.302;2023-02-11T10:47:04;22.77;;;16.10;;
40314;SDS011;26021;45.640;11.302;2023-02-11T10:49:39;21.40;;;15.18;;
40314;SDS011;26021;45.640;11.302;2023-02-11T10:52:39;22.83;;;16.13;;
40314;SDS011;26021;45.640;11.302;2023-02-11T10:58:00;24.10;;;15.63;;
40314;SDS011;26021;45.640;11.302;2023-02-11T11:02:57;20.63;;;14.90;;
40314;SDS011;26021;45.640;11.302;2023-02-11T11:05:30;21.35;;;15.02;;
40314;SDS011;26021;45.640;11.302;2023-02-11T11:08:00;22.80;;;14.13;;
40314;SDS011;26021;45.640;11.302;2023-02-11T11:13:22;21.83;;;15.75;;
40314;SDS011;26021;45.640;11.302;2023-02-11T11:18:36;27.33;;;17.95;;
40314;SDS011;26021;45.640;11.302;2023-02-11T11:21:10;21.48;;;15.00;;
40314;SDS011;26021;45.640;11.302;2023-02-11T11:23:36;22.58;;;15.30;;
40314;SDS011;26021;45.640;11.302;2023-02-11T11:26:10;25.30;;;17.65;;
40314;SDS011;26021;45.640;11.302;2023-02-11T11:28:40;25.27;;;17.08;;
40314;SDS011;26021;45.640;11.302;2023-02-11T11:31:15;25.52;;;17.25;;
40314;SDS011;26021;45.640;11.302;2023-02-11T11:33:43;27.65;;;17.33;;
40314;SDS011;26021;45.640;11.302;2023-02-11T11:36:12;23.08;;;16.90;;
40314;SDS011;26021;45.640;11.302;2023-02-11T11:38:54;26.20;;;17.73;;
40314;SDS011;26021;45.640;11.302;2023-02-11T11:46:25;26.52;;;17.75;;
40314;SDS011;26021;45.640;11.302;2023-02-11T11:49:12;22.50;;;16.23;;
40314;SDS011;26021;45.640;11.302;2023-02-11T11:51:46;23.38;;;16.35;;
40314;SDS011;26021;45.640;11.302;2023-02-11T11:54:34;25.50;;;17.02;;
40314;SDS011;26021;45.640;11.302;2023-02-11T11:57:23;30.05;;;21.23;;
40314;SDS011;26021;45.640;11.302;2023-02-11T11:59:50;26.65;;;18.67;;
40314;SDS011;26021;45.640;11.302;2023-02-11T12:02:34;26.92;;;18.90;;
40314;SDS011;26021;45.640;11.302;2023-02-11T12:11:08;26.98;;;19.20;;
40314;SDS011;26021;45.640;11.302;2023-02-11T12:27:43;29.05;;;19.88;;
40314;SDS011;26021;45.640;11.302;2023-02-11T12:33:14;25.38;;;19.23;;
40314;SDS011;26021;45.640;11.302;2023-02-11T12:36:03;30.58;;;21.48;;
40314;SDS011;26021;45.640;11.302;2023-02-11T12:44:55;26.70;;;19.50;;
40314;SDS011;26021;45.640;11.302;2023-02-11T12:55:51;27.38;;;19.90;;
40314;SDS011;26021;45.640;11.302;2023-02-11T12:58:22;30.88;;;20.75;;
40314;SDS011;26021;45.640;11.302;2023-02-11T13:00:53;30.13;;;21.52;;
40314;SDS011;26021;45.640;11.302;2023-02-11T13:03:30;32.80;;;22.58;;
40314;SDS011;26021;45.640;11.302;2023-02-11T13:06:28;40.40;;;23.35;;
40314;SDS011;26021;45.640;11.302;2023-02-11T13:09:05;34.38;;;21.80;;
40314;SDS011;26021;45.640;11.302;2023-02-11T13:11:42;30.10;;;21.70;;
40314;SDS011;26021;45.640;11.302;2023-02-11T13:14:23;27.40;;;20.92;;
40314;SDS011;26021;45.640;11.302;2023-02-11T13:16:56;26.95;;;20.52;;
40314;SDS011;26021;45.640;11.302;2023-02-11T13:19:29;30.65;;;21.23;;
40314;SDS011;26021;45.640;11.302;2023-02-11T13:40:41;30.40;;;22.33;;
40314;SDS011;26021;45.640;11.302;2023-02-11T13:43:21;34.42;;;24.17;;
40314;SDS011;26021;45.640;11.302;2023-02-11T13:45:50;33.35;;;22.35;;
40314;SDS011;26021;45.640;11.302;2023-02-11T13:48:20;32.00;;;22.33;;
40314;SDS011;26021;45.640;11.302;2023-02-11T13:50:58;32.83;;;22.45;;
40314;SDS011;26021;45.640;11.302;2023-02-11T13:53:26;32.63;;;23.52;;
40314;SDS011;26021;45.640;11.302;2023-02-11T13:56:02;33.42;;;23.75;;
40314;SDS011;26021;45.640;11.302;2023-02-11T13:58:32;34.90;;;24.23;;
40314;SDS011;26021;45.640;11.302;2023-02-11T14:01:01;33.80;;;23.40;;
40314;SDS011;26021;45.640;11.302;2023-02-11T14:03:28;35.25;;;24.23;;
40314;SDS011;26021;45.640;11.302;2023-02-11T14:14:29;30.17;;;23.38;;
40314;SDS011;26021;45.640;11.302;2023-02-11T14:19:42;31.95;;;23.75;;
40314;SDS011;26021;45.640;11.302;2023-02-11T14:24:52;33.53;;;23.42;;
40314;SDS011;26021;45.640;11.302;2023-02-11T14:38:16;39.33;;;26.83;;
40314;SDS011;26021;45.640;11.302;2023-02-11T14:41:00;38.83;;;27.35;;
40314;SDS011;26021;45.640;11.302;2023-02-11T14:43:39;45.40;;;32.13;;
40314;SDS011;26021;45.640;11.302;2023-02-11T14:46:09;41.03;;;28.80;;
40314;SDS011;26021;45.640;11.302;2023-02-11T14:48:36;38.63;;;27.52;;
40314;SDS011;26021;45.640;11.302;2023-02-11T14:53:41;39.42;;;27.38;;
40314;SDS011;26021;45.640;11.302;2023-02-11T14:56:17;40.13;;;28.02;;
40314;SDS011;26021;45.640;11.302;2023-02-11T14:58:45;39.47;;;27.92;;
40314;SDS011;26021;45.640;11.302;2023-02-11T15:04:01;42.78;;;30.38;;
40314;SDS011;26021;45.640;11.302;2023-02-11T15:06:36;41.63;;;30.13;;
40314;SDS011;26021;45.640;11.302;2023-02-11T15:09:18;44.97;;;31.08;;
40314;SDS011;26021;45.640;11.302;2023-02-11T15:11:49;50.83;;;33.00;;
40314;SDS011;26021;45.640;11.302;2023-02-11T15:14:23;49.42;;;33.25;;
40314;SDS011;26021;45.640;11.302;2023-02-11T15:16:52;44.67;;;31.92;;
40314;SDS011;26021;45.640;11.302;2023-02-11T15:22:44;43.30;;;30.00;;
40314;SDS011;26021;45.640;11.302;2023-02-11T15:27:24;39.65;;;29.60;;
40314;SDS011;26021;45.640;11.302;2023-02-11T15:29:49;44.72;;;30.40;;
40314;SDS011;26021;45.640;11.302;2023-02-11T15:32:17;45.92;;;30.77;;
40314;SDS011;26021;45.640;11.302;2023-02-11T15:34:45;44.72;;;33.42;;
40314;SDS011;26021;45.640;11.302;2023-02-11T15:37:17;51.08;;;36.58;;
40314;SDS011;26021;45.640;11.302;2023-02-11T15:39:51;49.97;;;33.83;;
40314;SDS011;26021;45.640;11.302;2023-02-11T15:42:19;52.10;;;36.25;;
40314;SDS011;26021;45.640;11.302;2023-02-11T15:47:37;53.88;;;39.22;;
40314;SDS011;26021;45.640;11.302;2023-02-11T15:50:04;54.50;;;39.38;;
40314;SDS011;26021;45.640;11.302;2023-02-11T15:52:31;49.17;;;35.35;;
40314;SDS011;26021;45.640;11.302;2023-02-11T15:54:58;52.05;;;35.90;;
40314;SDS011;26021;45.640;11.302;2023-02-11T15:57:26;53.53;;;34.42;;
40314;SDS011;26021;45.640;11.302;2023-02-11T15:59:53;50.97;;;35.67;;
40314;SDS011;26021;45.640;11.302;2023-02-11T16:02:30;51.55;;;35.03;;
40314;SDS011;26021;45.640;11.302;2023-02-11T16:05:06;48.28;;;34.05;;
40314;SDS011;26021;45.640;11.302;2023-02-11T16:07:48;57.70;;;36.90;;
40314;SDS011;26021;45.640;11.302;2023-02-11T16:13:24;68.38;;;43.80;;
40314;SDS011;26021;45.640;11.302;2023-02-11T16:18:21;87.03;;;56.10;;
40314;SDS011;26021;45.640;11.302;2023-02-11T16:20:57;71.85;;;46.25;;
40314;SDS011;26021;45.640;11.302;2023-02-11T16:23:24;69.28;;;43.05;;
40314;SDS011;26021;45.640;11.302;2023-02-11T16:25:57;66.53;;;43.75;;
40314;SDS011;26021;45.640;11.302;2023-02-11T16:28:29;100.63;;;61.30;;
40314;SDS011;26021;45.640;11.302;2023-02-11T16:30:55;83.88;;;53.22;;
40314;SDS011;26021;45.640;11.302;2023-02-11T16:33:21;88.53;;;56.20;;
40314;SDS011;26021;45.640;11.302;2023-02-11T16:35:47;91.43;;;55.22;;
40314;SDS011;26021;45.640;11.302;2023-02-11T16:38:14;76.07;;;51.30;;
40314;SDS011;26021;45.640;11.302;2023-02-11T16:40:40;60.05;;;40.30;;
40314;SDS011;26021;45.640;11.302;2023-02-11T16:43:08;61.15;;;42.33;;
40314;SDS011;26021;45.640;11.302;2023-02-11T16:45:37;63.22;;;40.47;;
40314;SDS011;26021;45.640;11.302;2023-02-11T16:48:06;60.95;;;41.67;;
40314;SDS011;26021;45.640;11.302;2023-02-11T16:50:33;65.63;;;43.30;;
40314;SDS011;26021;45.640;11.302;2023-02-11T16:52:59;72.75;;;47.38;;
40314;SDS011;26021;45.640;11.302;2023-02-11T16:55:30;82.93;;;50.95;;
40314;SDS011;26021;45.640;11.302;2023-02-11T16:57:56;81.10;;;48.75;;
40314;SDS011;26021;45.640;11.302;2023-02-11T17:00:21;78.40;;;48.13;;
40314;SDS011;26021;45.640;11.302;2023-02-11T17:02:47;69.25;;;45.63;;
40314;SDS011;26021;45.640;11.302;2023-02-11T17:05:18;69.45;;;44.05;;
40314;SDS011;26021;45.640;11.302;2023-02-11T17:07:47;66.35;;;42.85;;
40314;SDS011;26021;45.640;11.302;2023-02-11T17:10:14;66.53;;;43.50;;
40314;SDS011;26021;45.640;11.302;2023-02-11T17:12:40;71.47;;;47.28;;
40314;SDS011;26021;45.640;11.302;2023-02-11T17:15:06;74.05;;;49.85;;
40314;SDS011;26021;45.640;11.302;2023-02-11T17:17:31;95.20;;;57.90;;
40314;SDS011;26021;45.640;11.302;2023-02-11T17:19:57;119.70;;;68.97;;
40314;SDS011;26021;45.640;11.302;2023-02-11T17:22:22;118.45;;;65.30;;
40314;SDS011;26021;45.640;11.302;2023-02-11T17:24:48;74.10;;;46.45;;
40314;SDS011;26021;45.640;11.302;2023-02-11T17:27:13;65.43;;;43.38;;
40314;SDS011;26021;45.640;11.302;2023-02-11T17:29:39;80.90;;;48.53;;